createdAt,value
2019-05-19T00:03:33.584Z,12.87
2019-05-19T00:08:56.296Z,13.33
2019-05-19T00:14:19.211Z,14.87
2019-05-19T00:19:42.743Z,13.77
2019-05-19T00:25:06.812Z,14.07
2019-05-19T00:30:30.147Z,14.17
2019-05-19T00:35:52.890Z,13.63
2019-05-19T00:41:16.121Z,13.77
2019-05-19T00:46:39.921Z,13.80
2019-05-19T00:52:03.469Z,13.80
2019-05-19T00:57:27.418Z,12.00
2019-05-19T01:02:50.585Z,11.23
2019-05-19T01:08:14.169Z,11.07
2019-05-19T01:13:37.590Z,11.10
2019-05-19T01:19:00.434Z,10.27
2019-05-19T01:24:23.969Z,10.57
2019-05-19T01:29:47.255Z,9.97
2019-05-19T01:35:11.169Z,9.63
2019-05-19T01:40:34.708Z,10.57
2019-05-19T01:45:58.065Z,10.27
2019-05-19T01:51:21.598Z,9.87
2019-05-19T01:56:44.833Z,10.13
2019-05-19T02:02:08.087Z,10.03
2019-05-19T02:07:30.879Z,10.20
2019-05-19T02:12:53.962Z,9.30
2019-05-19T02:18:17.256Z,9.57
2019-05-19T02:23:40.168Z,13.97
2019-05-19T02:29:02.943Z,14.43
2019-05-19T02:34:26.344Z,9.60
2019-05-19T02:39:49.299Z,10.10
2019-05-19T02:45:13.766Z,10.03
2019-05-19T02:50:51.772Z,9.03
2019-05-19T02:56:06.157Z,9.87
2019-05-19T03:01:29.340Z,10.53
2019-05-19T03:06:52.616Z,10.70
2019-05-19T03:12:16.241Z,9.97
2019-05-19T03:17:39.009Z,10.23
2019-05-19T03:23:02.127Z,9.27
2019-05-19T03:28:25.055Z,9.73
2019-05-19T03:33:52.870Z,9.07
2019-05-19T03:39:15.442Z,9.40
2019-05-19T03:44:38.513Z,9.53
2019-05-19T03:50:01.866Z,8.80
2019-05-19T03:55:25.192Z,9.33
2019-05-19T04:00:48.850Z,9.23
2019-05-19T04:06:12.316Z,9.63
2019-05-19T04:11:35.902Z,9.43
2019-05-19T04:16:59.110Z,9.90
2019-05-19T04:22:22.407Z,20.13
2019-05-19T04:27:46.032Z,9.13
2019-05-19T04:33:09.256Z,9.37
2019-05-19T04:38:32.530Z,9.63
2019-05-19T04:43:56.121Z,9.43
2019-05-19T04:49:19.792Z,9.83
2019-05-19T04:54:43.299Z,9.13
2019-05-19T05:00:07.502Z,9.33
2019-05-19T05:05:31.187Z,9.97
2019-05-19T05:10:54.261Z,10.07
2019-05-19T05:16:17.331Z,9.03
2019-05-19T05:21:40.611Z,9.27
2019-05-19T05:27:03.590Z,10.37
2019-05-19T05:32:26.705Z,9.67
2019-05-19T05:37:50.297Z,9.20
2019-05-19T05:43:13.726Z,9.80
2019-05-19T05:48:37.319Z,9.60
2019-05-19T05:54:00.628Z,10.73
2019-05-19T05:59:23.614Z,9.73
2019-05-19T06:04:47.099Z,9.93
2019-05-19T06:10:10.602Z,25.23
2019-05-19T06:15:33.309Z,10.73
2019-05-19T06:20:56.467Z,10.10
2019-05-19T06:26:19.599Z,10.03
2019-05-19T06:31:43.025Z,11.03
2019-05-19T06:37:06.235Z,11.03
2019-05-19T06:42:29.808Z,10.27
2019-05-19T06:47:52.679Z,10.10
2019-05-19T06:53:16.274Z,10.43
2019-05-19T06:58:39.569Z,9.50
2019-05-19T07:04:03.108Z,13.37
2019-05-19T07:09:26.900Z,13.70
2019-05-19T07:14:50.437Z,8.73
2019-05-19T07:20:13.846Z,9.27
2019-05-19T07:25:37.491Z,10.03
2019-05-19T07:31:00.765Z,8.63
2019-05-19T07:36:24.389Z,9.30
2019-05-19T07:41:47.991Z,8.23
2019-05-19T07:47:11.196Z,7.60
2019-05-19T07:52:33.767Z,6.93
2019-05-19T07:57:57.394Z,7.10
2019-05-19T08:03:21.178Z,7.63
2019-05-19T08:08:44.815Z,7.77
2019-05-19T08:14:07.828Z,7.20
2019-05-19T08:19:31.287Z,7.37
2019-05-19T08:24:54.082Z,7.43
2019-05-19T08:30:17.214Z,6.67
2019-05-19T08:35:40.628Z,6.97
2019-05-19T08:41:03.880Z,9.73
2019-05-19T08:46:27.053Z,6.33
2019-05-19T08:51:50.332Z,5.97
2019-05-19T08:57:13.969Z,5.37
2019-05-19T09:02:37.055Z,5.97
2019-05-19T09:08:00.650Z,6.07
2019-05-19T09:13:24.196Z,5.27
2019-05-19T09:18:47.579Z,6.23
2019-05-19T09:24:10.613Z,6.10
2019-05-19T09:29:34.056Z,6.57
2019-05-19T09:34:57.401Z,5.13
2019-05-19T09:40:20.775Z,5.37
2019-05-19T09:45:43.978Z,6.00
2019-05-19T09:51:07.256Z,4.53
2019-05-19T09:56:31.242Z,4.80
2019-05-19T10:01:55.025Z,4.30
2019-05-19T10:07:18.415Z,4.10
2019-05-19T10:12:41.663Z,3.97
2019-05-19T10:18:05.085Z,4.93
2019-05-19T10:23:28.785Z,5.10
2019-05-19T10:28:51.978Z,4.42
2019-05-19T10:34:15.219Z,5.50
2019-05-19T10:39:38.830Z,6.30
2019-05-19T10:45:02.307Z,6.62
2019-05-19T10:50:25.904Z,5.30
2019-05-19T10:55:49.623Z,5.72
2019-05-19T11:01:12.634Z,5.37
2019-05-19T11:06:36.078Z,6.10
2019-05-19T11:11:58.738Z,5.22
2019-05-19T11:17:22.079Z,5.20
2019-05-19T11:22:45.617Z,5.47
2019-05-19T11:28:09.022Z,5.40
2019-05-19T11:33:32.641Z,5.90
2019-05-19T11:38:56.117Z,5.25
2019-05-19T11:44:19.733Z,5.83
2019-05-19T11:49:43.278Z,5.03
2019-05-19T11:55:06.854Z,5.10
2019-05-19T12:00:30.511Z,5.60
2019-05-19T12:05:53.838Z,5.30
2019-05-19T12:11:17.205Z,5.72
2019-05-19T12:16:40.681Z,4.80
2019-05-19T12:22:03.887Z,4.70
2019-05-19T12:27:27.527Z,5.92
2019-05-19T12:32:51.258Z,5.05
2019-05-19T12:38:14.483Z,5.67
2019-05-19T12:43:38.066Z,7.70
2019-05-19T12:49:01.310Z,12.63
2019-05-19T12:54:24.565Z,6.85
2019-05-19T12:59:47.261Z,6.35
2019-05-19T13:05:11.428Z,10.32
2019-05-19T13:10:34.682Z,8.00
2019-05-19T13:15:57.966Z,7.50
2019-05-19T13:21:21.474Z,6.55
2019-05-19T13:26:56.130Z,6.20
2019-05-19T13:32:10.102Z,6.90
2019-05-19T13:37:33.707Z,7.67
2019-05-19T13:42:57.334Z,7.62
2019-05-19T13:48:20.349Z,8.85
2019-05-19T13:53:43.625Z,5.83
2019-05-19T13:59:07.237Z,6.75
2019-05-19T14:04:31.234Z,6.83
2019-05-19T14:09:54.345Z,7.23
2019-05-19T14:15:18.428Z,7.90
2019-05-19T14:20:41.994Z,7.75
2019-05-19T14:26:05.437Z,7.47
2019-05-19T14:31:28.741Z,7.17
2019-05-19T14:36:51.637Z,8.03
2019-05-19T14:42:16.536Z,7.97
2019-05-19T14:47:39.436Z,8.07
2019-05-19T14:53:02.604Z,8.33
2019-05-19T14:58:26.171Z,8.57
2019-05-19T15:03:49.362Z,8.13
2019-05-19T15:09:12.628Z,7.77
2019-05-19T15:14:36.115Z,7.77
2019-05-19T15:19:59.384Z,8.13
2019-05-19T15:25:22.612Z,7.93
2019-05-19T15:30:46.424Z,9.47
2019-05-19T15:36:09.902Z,8.10
2019-05-19T15:41:33.763Z,8.00
2019-05-19T15:46:57.162Z,8.53
2019-05-19T15:52:19.964Z,7.87
2019-05-19T15:57:43.473Z,11.87
2019-05-19T16:03:08.325Z,7.00
2019-05-19T16:08:31.754Z,7.97
2019-05-19T16:13:55.343Z,8.20
2019-05-19T16:19:18.662Z,7.27
2019-05-19T16:24:42.078Z,7.13
2019-05-19T16:30:07.157Z,7.03
2019-05-19T16:35:30.541Z,7.47
2019-05-19T16:40:53.939Z,6.87
2019-05-19T16:46:17.251Z,8.10
2019-05-19T16:51:41.025Z,7.50
2019-05-19T16:57:04.244Z,8.40
2019-05-19T17:02:27.685Z,9.13
2019-05-19T17:07:51.193Z,8.37
2019-05-19T17:13:14.761Z,8.27
2019-05-19T17:18:38.236Z,8.33
2019-05-19T17:24:01.588Z,8.53
2019-05-19T17:29:25.185Z,10.07
2019-05-19T17:34:51.916Z,9.63
2019-05-19T17:40:16.147Z,10.00
2019-05-19T17:45:38.982Z,9.87
2019-05-19T17:51:03.451Z,10.13
2019-05-19T17:56:29.240Z,10.50
2019-05-19T18:02:00.190Z,12.10
2019-05-19T18:07:23.608Z,11.00
2019-05-19T18:12:46.985Z,10.87
2019-05-19T18:18:09.995Z,11.17
2019-05-19T18:23:33.447Z,11.07
2019-05-19T18:28:56.077Z,10.97
2019-05-19T18:34:19.484Z,10.97
2019-05-19T18:39:42.293Z,10.13
2019-05-19T18:45:07.293Z,9.73
2019-05-19T18:50:30.730Z,13.80
2019-05-19T18:55:54.524Z,10.50
2019-05-19T19:01:17.793Z,9.70
2019-05-19T19:06:41.123Z,8.17
2019-05-19T19:12:04.731Z,8.37
2019-05-19T19:17:27.980Z,8.70
2019-05-19T19:22:51.434Z,8.03
2019-05-19T19:28:14.654Z,8.50
2019-05-19T19:33:51.956Z,8.37
2019-05-19T19:39:14.918Z,8.13
2019-05-19T19:44:38.454Z,8.93
2019-05-19T19:50:01.970Z,8.13
2019-05-19T19:55:25.146Z,8.03
2019-05-19T20:00:49.102Z,8.00
2019-05-19T20:06:12.661Z,8.00
2019-05-19T20:11:36.094Z,9.20
2019-05-19T20:16:59.897Z,10.00
2019-05-19T20:22:23.347Z,10.03
2019-05-19T20:27:47.368Z,9.17
2019-05-19T20:33:10.292Z,8.97
2019-05-19T20:38:34.265Z,9.50
2019-05-19T20:43:57.942Z,10.27
2019-05-19T20:49:21.402Z,10.73
2019-05-19T20:54:44.345Z,11.83
2019-05-19T21:00:08.752Z,11.67
2019-05-19T21:05:32.088Z,11.07
2019-05-19T21:10:55.409Z,11.63
2019-05-19T21:16:18.904Z,11.50
2019-05-19T21:21:42.107Z,11.50
2019-05-19T21:27:05.590Z,11.40
2019-05-19T21:32:28.768Z,12.70
2019-05-19T21:37:52.152Z,12.70
2019-05-19T21:43:15.813Z,13.13
2019-05-19T21:48:39.113Z,11.87
2019-05-19T21:54:02.701Z,12.60
2019-05-19T21:59:25.777Z,13.97
2019-05-19T22:04:49.075Z,20.83
2019-05-19T22:10:12.867Z,12.63
2019-05-19T22:15:36.288Z,14.00
2019-05-19T22:20:59.542Z,13.13
2019-05-19T22:26:22.693Z,11.27
2019-05-19T22:31:46.142Z,12.43
2019-05-19T22:37:09.860Z,15.30
2019-05-19T22:42:33.261Z,13.53
2019-05-19T22:47:57.099Z,13.87
2019-05-19T22:53:20.647Z,13.77
2019-05-19T22:58:44.059Z,13.00
2019-05-19T23:04:07.316Z,12.83
2019-05-19T23:09:30.826Z,15.70
2019-05-19T23:14:53.944Z,15.20
2019-05-19T23:20:17.553Z,13.33
2019-05-19T23:25:41.012Z,13.30
2019-05-19T23:31:03.825Z,13.67
2019-05-19T23:36:26.378Z,13.47
2019-05-19T23:41:50.139Z,14.70
2019-05-19T23:47:13.252Z,13.37
2019-05-19T23:52:36.714Z,14.27
2019-05-19T23:58:00.202Z,12.87
